createdAt,value
2023-01-20T00:02:27.049Z,98364.50
2023-01-20T00:07:31.307Z,98368.34
2023-01-20T00:12:34.148Z,98374.97
2023-01-20T00:17:37.131Z,98374.16
2023-01-20T00:22:42.386Z,98378.34
2023-01-20T00:27:46.678Z,98380.25
2023-01-20T00:32:49.597Z,98383.84
2023-01-20T00:37:53.873Z,98398.41
2023-01-20T00:42:56.789Z,98405.78
2023-01-20T00:47:59.745Z,98411.59
2023-01-20T00:53:04.024Z,98411.59
2023-01-20T00:58:06.976Z,98418.69
2023-01-20T01:03:11.205Z,98437.09
2023-01-20T01:08:15.772Z,98446.09
2023-01-20T01:13:18.677Z,98445.16
2023-01-20T01:18:21.576Z,98461.97
2023-01-20T01:23:25.922Z,98467.59
2023-01-20T01:28:28.848Z,98474.38
2023-01-20T01:33:32.022Z,98482.00
2023-01-20T01:38:36.632Z,98485.81
2023-01-20T01:43:40.782Z,98485.16
2023-01-20T01:48:46.539Z,98492.13
2023-01-20T01:53:57.488Z,98490.50
2023-01-20T01:59:03.697Z,98500.63
2023-01-20T02:04:12.266Z,98502.91
2023-01-20T02:09:16.827Z,98495.97
2023-01-20T02:14:23.721Z,98505.97
2023-01-20T02:19:52.791Z,98505.16
2023-01-20T02:25:34.827Z,98499.84
2023-01-20T02:30:56.396Z,98496.13
2023-01-20T02:36:04.570Z,98505.81
2023-01-20T02:41:12.708Z,98517.44
2023-01-20T02:46:21.331Z,98516.94
2023-01-20T02:51:30.960Z,98518.06
2023-01-20T02:56:35.893Z,98529.03
2023-01-20T03:01:42.572Z,98526.28
2023-01-20T03:06:50.758Z,98533.38
2023-01-20T03:11:59.967Z,98538.22
2023-01-20T03:17:03.139Z,98550.88
2023-01-20T03:22:07.661Z,98545.22
2023-01-20T03:27:11.491Z,98549.41
2023-01-20T03:32:15.399Z,98562.16
2023-01-20T03:37:19.831Z,98565.53
2023-01-20T03:42:30.492Z,98569.25
2023-01-20T03:47:52.757Z,98580.38
2023-01-20T03:53:01.776Z,98569.41
2023-01-20T03:58:08.726Z,98588.16
2023-01-20T04:03:16.977Z,98585.75
2023-01-20T04:08:25.711Z,98594.94
2023-01-20T04:13:28.613Z,98593.63
2023-01-20T04:18:31.555Z,98601.41
2023-01-20T04:23:41.044Z,98607.53
2023-01-20T04:28:43.941Z,98613.03
2023-01-20T04:33:46.914Z,98613.34
2023-01-20T04:38:51.229Z,98616.25
2023-01-20T04:43:54.178Z,98624.16
2023-01-20T04:48:57.120Z,98632.03
2023-01-20T04:54:01.572Z,98641.75
2023-01-20T04:59:04.880Z,98638.19
2023-01-20T05:04:07.870Z,98645.63
2023-01-20T05:09:15.207Z,98650.16
2023-01-20T05:14:18.074Z,98654.84
2023-01-20T05:19:21.001Z,98665.47
2023-01-20T05:24:25.657Z,98664.50
2023-01-20T05:29:28.700Z,98672.56
2023-01-20T05:34:31.680Z,98679.47
2023-01-20T05:39:35.963Z,98676.94
2023-01-20T05:44:38.833Z,98684.66
2023-01-20T05:49:41.889Z,98691.78
2023-01-20T05:54:46.194Z,98695.97
2023-01-20T05:59:49.633Z,98706.78
2023-01-20T06:04:52.612Z,98711.31
2023-01-20T06:09:56.876Z,98708.59
2023-01-20T06:14:59.774Z,98713.41
2023-01-20T06:20:04.329Z,98719.19
2023-01-20T06:25:09.307Z,98718.25
2023-01-20T06:30:12.890Z,98726.81
2023-01-20T06:35:16.574Z,98727.66
2023-01-20T06:40:21.172Z,98738.28
2023-01-20T06:45:24.452Z,98742.97
2023-01-20T06:50:27.445Z,98748.63
2023-01-20T06:55:31.711Z,98754.41
2023-01-20T07:00:34.668Z,98760.75
2023-01-20T07:05:37.678Z,98768.88
2023-01-20T07:10:42.229Z,98775.84
2023-01-20T07:15:45.298Z,98789.28
2023-01-20T07:20:48.282Z,98794.09
2023-01-20T07:25:59.717Z,98801.13
2023-01-20T07:31:04.942Z,98809.22
2023-01-20T07:36:09.227Z,98819.81
2023-01-20T07:41:16.399Z,98832.34
2023-01-20T07:46:19.469Z,98849.06
2023-01-20T07:51:22.473Z,98845.00
2023-01-20T07:56:29.609Z,98851.66
2023-01-20T08:01:33.745Z,98854.38
2023-01-20T08:06:36.821Z,98866.88
2023-01-20T08:11:41.339Z,98866.16
2023-01-20T08:16:44.323Z,98871.53
2023-01-20T08:21:47.396Z,98876.44
2023-01-20T08:26:51.949Z,98887.50
2023-01-20T08:31:55.022Z,98900.47
2023-01-20T08:36:58.027Z,98904.56
2023-01-20T08:42:02.281Z,98917.34
2023-01-20T08:47:05.203Z,98915.06
2023-01-20T08:52:08.159Z,98920.44
2023-01-20T08:57:12.843Z,98920.44
2023-01-20T09:02:15.810Z,98923.88
2023-01-20T09:07:20.206Z,98925.41
2023-01-20T09:12:24.477Z,98929.97
2023-01-20T09:17:27.464Z,98937.78
2023-01-20T09:22:30.286Z,98936.63
2023-01-20T09:27:34.801Z,98946.81
2023-01-20T09:32:37.701Z,98952.63
2023-01-20T09:37:57.961Z,98966.03
2023-01-20T09:43:32.316Z,98954.22
2023-01-20T09:49:03.837Z,98963.44
2023-01-20T09:54:15.539Z,98954.41
2023-01-20T09:59:25.958Z,98956.66
2023-01-20T10:04:34.778Z,98961.59
2023-01-20T10:09:42.082Z,98960.72
2023-01-20T10:14:53.853Z,98957.44
2023-01-20T10:20:04.060Z,98958.50
2023-01-20T10:25:13.420Z,98966.50
2023-01-20T10:30:18.870Z,98970.75
2023-01-20T10:35:25.352Z,98964.78
2023-01-20T10:40:35.592Z,98977.06
2023-01-20T10:45:55.286Z,98978.28
2023-01-20T10:51:06.078Z,98981.22
2023-01-20T10:56:26.920Z,98979.94
2023-01-20T11:01:31.494Z,98993.22
2023-01-20T11:06:34.521Z,98995.03
2023-01-20T11:11:38.056Z,98995.13
2023-01-20T11:16:46.755Z,99002.75
2023-01-20T11:21:49.876Z,98999.34
2023-01-20T11:26:52.943Z,99000.38
2023-01-20T11:31:59.569Z,99007.91
2023-01-20T11:37:18.834Z,99011.66
2023-01-20T11:42:25.013Z,99017.41
2023-01-20T11:47:31.417Z,99026.53
2023-01-20T11:52:36.315Z,99032.13
2023-01-20T11:57:40.411Z,99049.03
2023-01-20T12:02:45.816Z,99054.94
2023-01-20T12:07:53.330Z,99049.53
2023-01-20T12:13:02.413Z,99058.44
2023-01-20T12:18:13.992Z,99061.47
2023-01-20T12:23:22.166Z,99068.19
2023-01-20T12:28:32.202Z,99067.69
2023-01-20T12:33:39.870Z,99072.19
2023-01-20T12:38:54.472Z,99073.22
2023-01-20T12:44:05.530Z,99077.41
2023-01-20T12:49:37.119Z,99086.78
2023-01-20T12:55:00.427Z,99090.72
2023-01-20T13:00:31.371Z,99098.88
2023-01-20T13:06:18.093Z,99097.03
2023-01-20T13:11:31.919Z,99105.66
2023-01-20T13:16:42.711Z,99106.94
2023-01-20T13:22:02.861Z,99106.47
2023-01-20T13:27:12.186Z,99104.03
2023-01-20T13:32:29.497Z,99112.72
2023-01-20T13:37:37.864Z,99116.28
2023-01-20T13:42:51.995Z,99125.88
2023-01-20T13:47:58.564Z,99135.81
2023-01-20T13:53:14.857Z,99135.97
2023-01-20T13:58:19.265Z,99138.63
2023-01-20T14:03:24.728Z,99144.41
2023-01-20T14:08:31.467Z,99149.09
2023-01-20T14:13:34.460Z,99162.47
2023-01-20T14:18:37.972Z,99152.41
2023-01-20T14:23:42.639Z,99165.19
2023-01-20T14:28:48.674Z,99174.06
2023-01-20T14:33:57.935Z,99170.56
2023-01-20T14:39:04.474Z,99185.19
2023-01-20T14:44:18.032Z,99190.91
2023-01-20T14:49:23.779Z,99199.00
2023-01-20T14:54:44.074Z,99198.09
2023-01-20T14:59:47.400Z,99205.84
2023-01-20T15:04:50.357Z,99220.16
2023-01-20T15:10:02.558Z,99228.03
2023-01-20T15:15:21.903Z,99237.50
2023-01-20T15:20:28.663Z,99243.22
2023-01-20T15:25:38.022Z,99244.84
2023-01-20T15:30:41.031Z,99249.13
2023-01-20T15:35:43.956Z,99262.16
2023-01-20T15:40:48.688Z,99267.53
2023-01-20T15:45:51.604Z,99266.03
2023-01-20T15:50:54.581Z,99275.16
2023-01-20T15:56:00.422Z,99281.66
2023-01-20T16:01:03.346Z,99280.81
2023-01-20T16:06:12.826Z,99287.56
2023-01-20T16:11:18.907Z,99290.22
2023-01-20T16:16:23.664Z,99295.06
2023-01-20T16:21:26.892Z,99302.72
2023-01-20T16:26:34.948Z,99306.31
2023-01-20T16:31:37.898Z,99310.88
2023-01-20T16:36:40.869Z,99315.16
2023-01-20T16:41:49.307Z,99323.84
2023-01-20T16:46:52.280Z,99335.28
2023-01-20T16:51:55.207Z,99347.75
2023-01-20T16:56:59.515Z,99354.06
2023-01-20T17:02:02.536Z,99359.06
2023-01-20T17:07:05.847Z,99367.03
2023-01-20T17:12:10.347Z,99368.06
2023-01-20T17:17:13.255Z,99384.22
2023-01-20T17:22:17.385Z,99385.38
2023-01-20T17:27:21.816Z,99386.59
2023-01-20T17:32:24.751Z,99389.31
2023-01-20T17:37:27.689Z,99392.69
2023-01-20T17:42:31.906Z,99408.31
2023-01-20T17:47:34.766Z,99406.75
2023-01-20T17:52:37.755Z,99407.69
2023-01-20T17:57:42.057Z,99414.41
2023-01-20T18:02:44.984Z,99418.31
2023-01-20T18:07:49.541Z,99418.16
2023-01-20T18:12:53.785Z,99426.06
2023-01-20T18:17:57.110Z,99430.50
2023-01-20T18:23:00.097Z,99436.16
2023-01-20T18:28:04.464Z,99448.84
2023-01-20T18:33:07.400Z,99447.72
2023-01-20T18:38:10.373Z,99453.00
2023-01-20T18:43:14.592Z,99450.06
2023-01-20T18:48:17.859Z,99459.75
2023-01-20T18:53:20.742Z,99470.28
2023-01-20T18:58:27.389Z,99469.41
2023-01-20T19:03:30.380Z,99461.81
2023-01-20T19:08:33.752Z,99470.78
2023-01-20T19:13:38.009Z,99467.38
2023-01-20T19:18:41.313Z,99471.69
2023-01-20T19:23:45.053Z,99467.59
2023-01-20T19:28:56.817Z,99469.44
2023-01-20T19:34:00.337Z,99465.84
2023-01-20T19:39:03.716Z,99466.66
2023-01-20T19:44:08.522Z,99466.97
2023-01-20T19:49:12.178Z,99475.78
2023-01-20T19:54:15.255Z,99481.81
2023-01-20T19:59:19.552Z,99490.31
2023-01-20T20:04:24.083Z,99498.63
2023-01-20T20:09:27.011Z,99500.13
2023-01-20T20:14:31.433Z,99504.53
2023-01-20T20:19:35.037Z,99514.25
2023-01-20T20:24:38.011Z,99510.81
2023-01-20T20:29:42.338Z,99523.38
2023-01-20T20:34:45.200Z,99527.47
2023-01-20T20:39:48.089Z,99533.03
2023-01-20T20:44:52.405Z,99542.19
2023-01-20T20:49:55.319Z,99544.22
2023-01-20T20:54:58.200Z,99553.25
2023-01-20T21:00:02.486Z,99552.19
2023-01-20T21:05:05.922Z,99555.56
2023-01-20T21:10:11.410Z,99560.97
2023-01-20T21:15:17.870Z,99571.81
2023-01-20T21:20:20.719Z,99565.94
2023-01-20T21:25:24.170Z,99583.84
2023-01-20T21:30:28.628Z,99588.59
2023-01-20T21:35:31.604Z,99582.88
2023-01-20T21:40:34.922Z,99592.72
2023-01-20T21:45:39.255Z,99591.34
2023-01-20T21:50:59.499Z,99591.00
2023-01-20T21:56:02.472Z,99606.50
2023-01-20T22:01:06.966Z,99597.94
2023-01-20T22:06:10.558Z,99603.25
2023-01-20T22:11:13.650Z,99616.16
2023-01-20T22:16:17.871Z,99609.66
2023-01-20T22:21:21.771Z,99626.81
2023-01-20T22:26:24.705Z,99627.19
2023-01-20T22:31:30.230Z,99622.63
2023-01-20T22:36:33.881Z,99632.50
2023-01-20T22:41:36.761Z,99628.38
2023-01-20T22:46:41.028Z,99626.88
2023-01-20T22:51:43.909Z,99622.44
2023-01-20T22:56:46.770Z,99624.63
2023-01-20T23:01:51.090Z,99626.81
2023-01-20T23:06:53.976Z,99633.78
2023-01-20T23:11:56.834Z,99633.44
2023-01-20T23:17:01.166Z,99633.88
2023-01-20T23:22:04.091Z,99632.22
2023-01-20T23:27:06.949Z,99635.06
2023-01-20T23:32:11.373Z,99634.84
2023-01-20T23:37:14.286Z,99637.75
2023-01-20T23:42:18.817Z,99642.34
2023-01-20T23:47:23.180Z,99659.00
2023-01-20T23:52:26.954Z,99648.03
2023-01-20T23:57:29.831Z,99663.03
